sensor_id;sensor_type;location;lat;lon;timestamp;P1;durP1;ratioP1;P2;durP2;ratioP2
50483;SDS011;36409;52.168;20.878;2023-03-01T00:02:02;100.20;;;43.80;;
50483;SDS011;36409;52.168;20.878;2023-03-01T00:04:32;105.20;;;45.33;;
50483;SDS011;36409;52.168;20.878;2023-03-01T00:07:03;107.20;;;47.63;;
50483;SDS011;36409;52.168;20.878;2023-03-01T00:09:32;108.57;;;47.90;;
50483;SDS011;36409;52.168;20.878;2023-03-01T00:12:02;102.33;;;45.73;;
50483;SDS011;36409;52.168;20.878;2023-03-01T00:14:33;96.23;;;44.67;;
50483;SDS011;36409;52.168;20.878;2023-03-01T00:17:03;101.93;;;45.93;;
50483;SDS011;36409;52.168;20.878;2023-03-01T00:19:33;104.30;;;46.70;;
50483;SDS011;36409;52.168;20.878;2023-03-01T00:22:03;100.40;;;43.23;;
50483;SDS011;36409;52.168;20.878;2023-03-01T00:24:33;101.53;;;44.57;;
50483;SDS011;36409;52.168;20.878;2023-03-01T00:27:04;104.00;;;46.50;;
50483;SDS011;36409;52.168;20.878;2023-03-01T00:32:04;95.20;;;42.63;;
50483;SDS011;36409;52.168;20.878;2023-03-01T00:34:34;108.27;;;45.97;;
50483;SDS011;36409;52.168;20.878;2023-03-01T00:37:03;107.73;;;46.20;;
50483;SDS011;36409;52.168;20.878;2023-03-01T00:39:34;107.77;;;45.53;;
50483;SDS011;36409;52.168;20.878;2023-03-01T00:42:03;108.20;;;47.40;;
50483;SDS011;36409;52.168;20.878;2023-03-01T00:44:33;99.83;;;42.57;;
50483;SDS011;36409;52.168;20.878;2023-03-01T00:47:04;84.90;;;40.27;;
50483;SDS011;36409;52.168;20.878;2023-03-01T00:49:34;92.53;;;40.93;;
50483;SDS011;36409;52.168;20.878;2023-03-01T00:52:03;91.83;;;39.80;;
50483;SDS011;36409;52.168;20.878;2023-03-01T00:54:33;83.93;;;38.50;;
50483;SDS011;36409;52.168;20.878;2023-03-01T00:57:02;87.73;;;39.40;;
50483;SDS011;36409;52.168;20.878;2023-03-01T00:59:32;79.90;;;37.53;;
50483;SDS011;36409;52.168;20.878;2023-03-01T01:02:02;88.27;;;39.27;;
50483;SDS011;36409;52.168;20.878;2023-03-01T01:04:31;87.90;;;37.43;;
50483;SDS011;36409;52.168;20.878;2023-03-01T01:07:00;91.73;;;40.30;;
50483;SDS011;36409;52.168;20.878;2023-03-01T01:09:29;82.63;;;37.83;;
50483;SDS011;36409;52.168;20.878;2023-03-01T01:11:58;86.67;;;36.20;;
50483;SDS011;36409;52.168;20.878;2023-03-01T01:14:27;75.77;;;35.43;;
50483;SDS011;36409;52.168;20.878;2023-03-01T01:16:56;85.53;;;34.93;;
50483;SDS011;36409;52.168;20.878;2023-03-01T01:19:25;79.13;;;35.13;;
50483;SDS011;36409;52.168;20.878;2023-03-01T01:21:55;75.43;;;35.70;;
50483;SDS011;36409;52.168;20.878;2023-03-01T01:24:24;77.20;;;35.43;;
50483;SDS011;36409;52.168;20.878;2023-03-01T01:26:54;77.13;;;35.37;;
50483;SDS011;36409;52.168;20.878;2023-03-01T01:29:24;67.93;;;32.73;;
50483;SDS011;36409;52.168;20.878;2023-03-01T01:31:53;76.43;;;36.13;;
50483;SDS011;36409;52.168;20.878;2023-03-01T01:34:22;80.30;;;36.17;;
50483;SDS011;36409;52.168;20.878;2023-03-01T01:36:52;79.07;;;35.37;;
50483;SDS011;36409;52.168;20.878;2023-03-01T01:39:22;71.40;;;33.10;;
50483;SDS011;36409;52.168;20.878;2023-03-01T01:41:52;75.97;;;34.17;;
50483;SDS011;36409;52.168;20.878;2023-03-01T01:44:24;72.90;;;32.37;;
50483;SDS011;36409;52.168;20.878;2023-03-01T01:46:55;73.27;;;31.70;;
50483;SDS011;36409;52.168;20.878;2023-03-01T01:49:28;79.63;;;34.50;;
50483;SDS011;36409;52.168;20.878;2023-03-01T01:52:02;67.97;;;31.70;;
50483;SDS011;36409;52.168;20.878;2023-03-01T01:54:39;71.87;;;33.90;;
50483;SDS011;36409;52.168;20.878;2023-03-01T01:57:16;75.23;;;35.53;;
50483;SDS011;36409;52.168;20.878;2023-03-01T01:59:50;69.87;;;33.90;;
50483;SDS011;36409;52.168;20.878;2023-03-01T02:02:28;78.63;;;33.37;;
50483;SDS011;36409;52.168;20.878;2023-03-01T02:05:01;72.13;;;35.33;;
50483;SDS011;36409;52.168;20.878;2023-03-01T02:07:38;75.13;;;33.27;;
50483;SDS011;36409;52.168;20.878;2023-03-01T02:10:10;78.13;;;33.90;;
50483;SDS011;36409;52.168;20.878;2023-03-01T02:12:39;80.30;;;34.93;;
50483;SDS011;36409;52.168;20.878;2023-03-01T02:15:10;79.33;;;33.90;;
50483;SDS011;36409;52.168;20.878;2023-03-01T02:17:39;77.70;;;34.87;;
50483;SDS011;36409;52.168;20.878;2023-03-01T02:20:12;77.13;;;35.60;;
50483;SDS011;36409;52.168;20.878;2023-03-01T02:22:49;85.60;;;37.00;;
50483;SDS011;36409;52.168;20.878;2023-03-01T02:25:32;85.53;;;37.93;;
50483;SDS011;36409;52.168;20.878;2023-03-01T02:28:10;76.93;;;36.77;;
50483;SDS011;36409;52.168;20.878;2023-03-01T02:30:52;83.47;;;40.70;;
50483;SDS011;36409;52.168;20.878;2023-03-01T02:33:41;77.50;;;38.17;;
50483;SDS011;36409;52.168;20.878;2023-03-01T02:36:14;82.80;;;37.00;;
50483;SDS011;36409;52.168;20.878;2023-03-01T02:38:51;93.83;;;42.27;;
50483;SDS011;36409;52.168;20.878;2023-03-01T02:41:23;84.77;;;38.50;;
50483;SDS011;36409;52.168;20.878;2023-03-01T02:43:56;96.83;;;44.00;;
50483;SDS011;36409;52.168;20.878;2023-03-01T02:46:28;108.53;;;48.50;;
50483;SDS011;36409;52.168;20.878;2023-03-01T02:48:58;102.30;;;46.33;;
50483;SDS011;36409;52.168;20.878;2023-03-01T02:51:33;113.87;;;50.33;;
50483;SDS011;36409;52.168;20.878;2023-03-01T02:54:22;114.80;;;50.27;;
50483;SDS011;36409;52.168;20.878;2023-03-01T02:56:54;107.67;;;48.93;;
50483;SDS011;36409;52.168;20.878;2023-03-01T02:59:28;101.10;;;46.63;;
50483;SDS011;36409;52.168;20.878;2023-03-01T03:01:58;99.20;;;45.05;;
50483;SDS011;36409;52.168;20.878;2023-03-01T03:04:30;90.57;;;41.73;;
50483;SDS011;36409;52.168;20.878;2023-03-01T03:07:02;88.97;;;41.30;;
50483;SDS011;36409;52.168;20.878;2023-03-01T03:09:31;88.30;;;40.67;;
50483;SDS011;36409;52.168;20.878;2023-03-01T03:12:01;89.97;;;42.33;;
50483;SDS011;36409;52.168;20.878;2023-03-01T03:14:32;108.57;;;48.53;;
50483;SDS011;36409;52.168;20.878;2023-03-01T03:17:03;112.07;;;46.97;;
50483;SDS011;36409;52.168;20.878;2023-03-01T03:19:34;111.05;;;48.70;;
50483;SDS011;36409;52.168;20.878;2023-03-01T03:22:03;106.13;;;46.63;;
50483;SDS011;36409;52.168;20.878;2023-03-01T03:24:32;113.43;;;50.20;;
50483;SDS011;36409;52.168;20.878;2023-03-01T03:27:06;119.63;;;49.87;;
50483;SDS011;36409;52.168;20.878;2023-03-01T03:29:36;121.17;;;51.90;;
50483;SDS011;36409;52.168;20.878;2023-03-01T03:32:06;107.03;;;48.60;;
50483;SDS011;36409;52.168;20.878;2023-03-01T03:34:35;96.40;;;43.80;;
50483;SDS011;36409;52.168;20.878;2023-03-01T03:37:04;97.20;;;44.43;;
50483;SDS011;36409;52.168;20.878;2023-03-01T03:39:54;94.20;;;41.43;;
50483;SDS011;36409;52.168;20.878;2023-03-01T03:42:25;84.30;;;36.57;;
50483;SDS011;36409;52.168;20.878;2023-03-01T03:44:55;81.70;;;37.97;;
50483;SDS011;36409;52.168;20.878;2023-03-01T03:49:58;79.80;;;34.20;;
50483;SDS011;36409;52.168;20.878;2023-03-01T03:52:33;78.87;;;33.77;;
50483;SDS011;36409;52.168;20.878;2023-03-01T03:55:03;80.40;;;36.40;;
50483;SDS011;36409;52.168;20.878;2023-03-01T03:57:38;73.10;;;36.87;;
50483;SDS011;36409;52.168;20.878;2023-03-01T04:00:11;83.47;;;37.70;;
50483;SDS011;36409;52.168;20.878;2023-03-01T04:02:42;89.55;;;39.53;;
50483;SDS011;36409;52.168;20.878;2023-03-01T04:05:13;86.87;;;40.20;;
50483;SDS011;36409;52.168;20.878;2023-03-01T04:07:44;80.23;;;36.00;;
50483;SDS011;36409;52.168;20.878;2023-03-01T04:10:14;79.50;;;35.30;;
50483;SDS011;36409;52.168;20.878;2023-03-01T04:12:45;81.87;;;35.80;;
50483;SDS011;36409;52.168;20.878;2023-03-01T04:15:17;83.70;;;36.77;;
50483;SDS011;36409;52.168;20.878;2023-03-01T04:17:47;84.83;;;36.70;;
50483;SDS011;36409;52.168;20.878;2023-03-01T04:20:17;97.23;;;40.93;;
50483;SDS011;36409;52.168;20.878;2023-03-01T04:22:52;82.40;;;38.37;;
50483;SDS011;36409;52.168;20.878;2023-03-01T04:25:38;85.57;;;36.33;;
50483;SDS011;36409;52.168;20.878;2023-03-01T04:28:08;83.33;;;37.23;;
50483;SDS011;36409;52.168;20.878;2023-03-01T04:30:38;81.00;;;37.03;;
50483;SDS011;36409;52.168;20.878;2023-03-01T04:33:09;102.30;;;44.80;;
50483;SDS011;36409;52.168;20.878;2023-03-01T04:35:39;95.17;;;41.37;;
50483;SDS011;36409;52.168;20.878;2023-03-01T04:38:09;96.07;;;41.40;;
50483;SDS011;36409;52.168;20.878;2023-03-01T04:40:39;95.87;;;42.00;;
50483;SDS011;36409;52.168;20.878;2023-03-01T04:43:10;89.17;;;40.23;;
50483;SDS011;36409;52.168;20.878;2023-03-01T04:45:41;88.40;;;39.33;;
50483;SDS011;36409;52.168;20.878;2023-03-01T04:48:11;86.57;;;36.73;;
50483;SDS011;36409;52.168;20.878;2023-03-01T04:50:43;93.53;;;38.63;;
50483;SDS011;36409;52.168;20.878;2023-03-01T04:53:13;85.47;;;39.90;;
50483;SDS011;36409;52.168;20.878;2023-03-01T04:55:43;73.57;;;36.27;;
50483;SDS011;36409;52.168;20.878;2023-03-01T04:58:15;80.00;;;37.50;;
50483;SDS011;36409;52.168;20.878;2023-03-01T05:00:45;83.67;;;37.40;;
50483;SDS011;36409;52.168;20.878;2023-03-01T05:03:14;81.97;;;33.83;;
50483;SDS011;36409;52.168;20.878;2023-03-01T05:05:46;73.50;;;34.57;;
50483;SDS011;36409;52.168;20.878;2023-03-01T05:08:16;78.33;;;35.73;;
50483;SDS011;36409;52.168;20.878;2023-03-01T05:10:49;74.27;;;34.47;;
50483;SDS011;36409;52.168;20.878;2023-03-01T05:13:21;75.37;;;35.27;;
50483;SDS011;36409;52.168;20.878;2023-03-01T05:15:54;81.80;;;37.83;;
50483;SDS011;36409;52.168;20.878;2023-03-01T05:18:30;81.03;;;35.37;;
50483;SDS011;36409;52.168;20.878;2023-03-01T05:21:03;76.07;;;35.00;;
50483;SDS011;36409;52.168;20.878;2023-03-01T05:23:35;71.57;;;34.57;;
50483;SDS011;36409;52.168;20.878;2023-03-01T05:26:05;68.37;;;31.90;;
50483;SDS011;36409;52.168;20.878;2023-03-01T05:28:55;76.07;;;33.27;;
50483;SDS011;36409;52.168;20.878;2023-03-01T05:31:29;72.70;;;34.13;;
50483;SDS011;36409;52.168;20.878;2023-03-01T05:34:04;65.93;;;30.77;;
50483;SDS011;36409;52.168;20.878;2023-03-01T05:36:34;62.83;;;29.83;;
50483;SDS011;36409;52.168;20.878;2023-03-01T05:39:03;67.70;;;30.93;;
50483;SDS011;36409;52.168;20.878;2023-03-01T05:41:34;64.17;;;29.37;;
50483;SDS011;36409;52.168;20.878;2023-03-01T05:44:04;67.33;;;30.73;;
50483;SDS011;36409;52.168;20.878;2023-03-01T05:46:35;62.73;;;30.97;;
50483;SDS011;36409;52.168;20.878;2023-03-01T05:49:05;59.33;;;29.00;;
50483;SDS011;36409;52.168;20.878;2023-03-01T05:51:35;65.67;;;31.37;;
50483;SDS011;36409;52.168;20.878;2023-03-01T05:54:04;72.67;;;32.50;;
50483;SDS011;36409;52.168;20.878;2023-03-01T05:56:35;77.93;;;35.27;;
50483;SDS011;36409;52.168;20.878;2023-03-01T05:59:05;75.03;;;36.30;;
50483;SDS011;36409;52.168;20.878;2023-03-01T06:01:36;75.20;;;35.80;;
50483;SDS011;36409;52.168;20.878;2023-03-01T06:04:06;78.20;;;35.87;;
50483;SDS011;36409;52.168;20.878;2023-03-01T06:06:36;76.30;;;35.20;;
50483;SDS011;36409;52.168;20.878;2023-03-01T06:09:06;77.10;;;33.17;;
50483;SDS011;36409;52.168;20.878;2023-03-01T06:11:37;70.80;;;34.50;;
50483;SDS011;36409;52.168;20.878;2023-03-01T06:14:07;74.53;;;34.63;;
50483;SDS011;36409;52.168;20.878;2023-03-01T06:16:38;61.37;;;31.83;;
50483;SDS011;36409;52.168;20.878;2023-03-01T06:19:12;74.03;;;34.60;;
50483;SDS011;36409;52.168;20.878;2023-03-01T06:21:41;66.50;;;33.60;;
50483;SDS011;36409;52.168;20.878;2023-03-01T06:24:12;75.95;;;35.50;;
50483;SDS011;36409;52.168;20.878;2023-03-01T06:26:44;68.73;;;33.17;;
50483;SDS011;36409;52.168;20.878;2023-03-01T06:29:13;72.23;;;35.00;;
50483;SDS011;36409;52.168;20.878;2023-03-01T06:31:47;75.00;;;37.97;;
50483;SDS011;36409;52.168;20.878;2023-03-01T06:36:46;69.47;;;33.73;;
50483;SDS011;36409;52.168;20.878;2023-03-01T06:39:15;70.60;;;35.07;;
50483;SDS011;36409;52.168;20.878;2023-03-01T06:41:48;66.53;;;33.60;;
50483;SDS011;36409;52.168;20.878;2023-03-01T06:44:17;57.27;;;28.27;;
50483;SDS011;36409;52.168;20.878;2023-03-01T06:47:02;74.67;;;34.00;;
50483;SDS011;36409;52.168;20.878;2023-03-01T06:49:31;69.53;;;35.43;;
50483;SDS011;36409;52.168;20.878;2023-03-01T06:52:00;74.33;;;32.17;;
50483;SDS011;36409;52.168;20.878;2023-03-01T06:54:30;67.40;;;31.80;;
50483;SDS011;36409;52.168;20.878;2023-03-01T06:56:59;68.63;;;33.33;;
50483;SDS011;36409;52.168;20.878;2023-03-01T06:59:28;64.30;;;32.07;;
50483;SDS011;36409;52.168;20.878;2023-03-01T07:02:05;68.27;;;35.00;;
50483;SDS011;36409;52.168;20.878;2023-03-01T07:04:37;67.60;;;33.57;;
50483;SDS011;36409;52.168;20.878;2023-03-01T07:07:06;63.93;;;31.83;;
50483;SDS011;36409;52.168;20.878;2023-03-01T07:09:37;65.37;;;31.73;;
50483;SDS011;36409;52.168;20.878;2023-03-01T07:12:07;68.00;;;35.00;;
50483;SDS011;36409;52.168;20.878;2023-03-01T07:14:36;66.60;;;32.33;;
50483;SDS011;36409;52.168;20.878;2023-03-01T07:17:06;70.70;;;32.47;;
50483;SDS011;36409;52.168;20.878;2023-03-01T07:19:36;66.50;;;32.20;;
50483;SDS011;36409;52.168;20.878;2023-03-01T07:22:05;70.10;;;33.70;;
50483;SDS011;36409;52.168;20.878;2023-03-01T07:24:36;63.90;;;32.43;;
50483;SDS011;36409;52.168;20.878;2023-03-01T07:27:05;66.27;;;31.47;;
50483;SDS011;36409;52.168;20.878;2023-03-01T07:29:35;58.40;;;30.73;;
50483;SDS011;36409;52.168;20.878;2023-03-01T07:32:04;63.87;;;31.47;;
50483;SDS011;36409;52.168;20.878;2023-03-01T07:34:34;63.30;;;30.90;;
50483;SDS011;36409;52.168;20.878;2023-03-01T07:37:03;61.80;;;31.20;;
50483;SDS011;36409;52.168;20.878;2023-03-01T07:39:32;51.23;;;28.33;;
50483;SDS011;36409;52.168;20.878;2023-03-01T07:42:01;50.83;;;27.50;;
50483;SDS011;36409;52.168;20.878;2023-03-01T07:44:31;58.17;;;27.63;;
50483;SDS011;36409;52.168;20.878;2023-03-01T07:47:00;53.57;;;26.13;;
50483;SDS011;36409;52.168;20.878;2023-03-01T07:49:30;50.67;;;27.87;;
50483;SDS011;36409;52.168;20.878;2023-03-01T07:52:00;53.20;;;28.00;;
50483;SDS011;36409;52.168;20.878;2023-03-01T07:54:30;48.17;;;26.60;;
50483;SDS011;36409;52.168;20.878;2023-03-01T07:57:01;45.67;;;25.50;;
50483;SDS011;36409;52.168;20.878;2023-03-01T07:59:31;48.40;;;26.70;;
50483;SDS011;36409;52.168;20.878;2023-03-01T08:02:00;41.80;;;25.40;;
50483;SDS011;36409;52.168;20.878;2023-03-01T08:04:30;40.87;;;24.87;;
50483;SDS011;36409;52.168;20.878;2023-03-01T08:06:59;44.57;;;25.57;;
50483;SDS011;36409;52.168;20.878;2023-03-01T08:09:29;43.03;;;26.00;;
50483;SDS011;36409;52.168;20.878;2023-03-01T08:11:58;40.30;;;24.33;;
50483;SDS011;36409;52.168;20.878;2023-03-01T08:14:28;45.97;;;24.20;;
50483;SDS011;36409;52.168;20.878;2023-03-01T08:16:57;37.50;;;21.77;;
50483;SDS011;36409;52.168;20.878;2023-03-01T08:19:26;36.17;;;21.07;;
50483;SDS011;36409;52.168;20.878;2023-03-01T08:21:56;38.27;;;23.93;;
50483;SDS011;36409;52.168;20.878;2023-03-01T08:24:25;35.97;;;21.63;;
50483;SDS011;36409;52.168;20.878;2023-03-01T08:26:57;34.00;;;21.53;;
50483;SDS011;36409;52.168;20.878;2023-03-01T08:29:29;33.40;;;21.25;;
50483;SDS011;36409;52.168;20.878;2023-03-01T08:31:59;37.13;;;21.20;;
50483;SDS011;36409;52.168;20.878;2023-03-01T08:34:29;41.30;;;21.27;;
50483;SDS011;36409;52.168;20.878;2023-03-01T08:36:58;35.57;;;19.80;;
50483;SDS011;36409;52.168;20.878;2023-03-01T08:39:27;35.77;;;21.63;;
50483;SDS011;36409;52.168;20.878;2023-03-01T08:41:57;38.03;;;23.13;;
50483;SDS011;36409;52.168;20.878;2023-03-01T08:44:26;35.17;;;23.00;;
50483;SDS011;36409;52.168;20.878;2023-03-01T08:46:56;40.63;;;20.57;;
50483;SDS011;36409;52.168;20.878;2023-03-01T08:49:25;49.03;;;27.73;;
50483;SDS011;36409;52.168;20.878;2023-03-01T08:51:54;38.47;;;22.10;;
50483;SDS011;36409;52.168;20.878;2023-03-01T08:54:25;35.17;;;19.57;;
50483;SDS011;36409;52.168;20.878;2023-03-01T08:56:54;39.80;;;20.67;;
50483;SDS011;36409;52.168;20.878;2023-03-01T08:59:26;36.27;;;21.07;;
50483;SDS011;36409;52.168;20.878;2023-03-01T09:01:57;38.40;;;21.85;;
50483;SDS011;36409;52.168;20.878;2023-03-01T09:04:26;39.13;;;21.90;;
50483;SDS011;36409;52.168;20.878;2023-03-01T09:06:57;40.20;;;22.00;;
50483;SDS011;36409;52.168;20.878;2023-03-01T09:09:26;42.17;;;20.60;;
50483;SDS011;36409;52.168;20.878;2023-03-01T09:11:56;33.93;;;19.70;;
50483;SDS011;36409;52.168;20.878;2023-03-01T09:14:25;35.73;;;18.57;;
50483;SDS011;36409;52.168;20.878;2023-03-01T09:16:54;31.97;;;19.33;;
50483;SDS011;36409;52.168;20.878;2023-03-01T09:19:25;31.03;;;17.57;;
50483;SDS011;36409;52.168;20.878;2023-03-01T09:21:54;28.70;;;17.20;;
50483;SDS011;36409;52.168;20.878;2023-03-01T09:24:25;31.77;;;16.67;;
50483;SDS011;36409;52.168;20.878;2023-03-01T09:26:55;29.77;;;16.27;;
50483;SDS011;36409;52.168;20.878;2023-03-01T09:29:25;27.05;;;15.60;;
50483;SDS011;36409;52.168;20.878;2023-03-01T09:31:54;31.40;;;15.87;;
50483;SDS011;36409;52.168;20.878;2023-03-01T09:34:24;33.90;;;16.17;;
50483;SDS011;36409;52.168;20.878;2023-03-01T09:36:53;31.63;;;15.23;;
50483;SDS011;36409;52.168;20.878;2023-03-01T09:39:25;23.77;;;13.83;;
50483;SDS011;36409;52.168;20.878;2023-03-01T09:41:56;23.23;;;12.83;;
50483;SDS011;36409;52.168;20.878;2023-03-01T09:44:30;21.33;;;12.20;;
50483;SDS011;36409;52.168;20.878;2023-03-01T09:47:04;24.07;;;12.87;;
50483;SDS011;36409;52.168;20.878;2023-03-01T09:49:39;21.70;;;11.77;;
50483;SDS011;36409;52.168;20.878;2023-03-01T09:52:19;24.43;;;12.60;;
50483;SDS011;36409;52.168;20.878;2023-03-01T09:54:57;24.13;;;11.93;;
50483;SDS011;36409;52.168;20.878;2023-03-01T09:57:36;21.83;;;12.60;;
50483;SDS011;36409;52.168;20.878;2023-03-01T10:00:15;29.10;;;14.73;;
50483;SDS011;36409;52.168;20.878;2023-03-01T10:03:01;29.87;;;16.87;;
50483;SDS011;36409;52.168;20.878;2023-03-01T10:05:43;36.70;;;21.63;;
50483;SDS011;36409;52.168;20.878;2023-03-01T10:08:29;34.93;;;20.37;;
50483;SDS011;36409;52.168;20.878;2023-03-01T10:11:04;26.40;;;15.63;;
50483;SDS011;36409;52.168;20.878;2023-03-01T10:13:50;33.95;;;19.10;;
50483;SDS011;36409;52.168;20.878;2023-03-01T10:16:27;32.33;;;18.53;;
50483;SDS011;36409;52.168;20.878;2023-03-01T10:19:05;38.60;;;20.67;;
50483;SDS011;36409;52.168;20.878;2023-03-01T10:21:41;36.77;;;19.93;;
50483;SDS011;36409;52.168;20.878;2023-03-01T10:24:14;30.85;;;17.85;;
50483;SDS011;36409;52.168;20.878;2023-03-01T10:26:52;29.63;;;17.80;;
50483;SDS011;36409;52.168;20.878;2023-03-01T10:29:27;26.97;;;15.20;;
50483;SDS011;36409;52.168;20.878;2023-03-01T10:31:59;28.50;;;18.03;;
50483;SDS011;36409;52.168;20.878;2023-03-01T10:34:34;26.77;;;16.03;;
50483;SDS011;36409;52.168;20.878;2023-03-01T10:37:10;25.90;;;15.13;;
50483;SDS011;36409;52.168;20.878;2023-03-01T10:39:55;24.13;;;14.17;;
50483;SDS011;36409;52.168;20.878;2023-03-01T10:42:38;29.27;;;14.97;;
50483;SDS011;36409;52.168;20.878;2023-03-01T10:45:16;25.50;;;13.90;;
50483;SDS011;36409;52.168;20.878;2023-03-01T10:48:03;30.90;;;17.23;;
50483;SDS011;36409;52.168;20.878;2023-03-01T10:50:40;24.10;;;14.37;;
50483;SDS011;36409;52.168;20.878;2023-03-01T10:53:25;25.17;;;14.03;;
50483;SDS011;36409;52.168;20.878;2023-03-01T10:56:02;29.67;;;15.53;;
50483;SDS011;36409;52.168;20.878;2023-03-01T10:58:34;37.13;;;18.40;;
50483;SDS011;36409;52.168;20.878;2023-03-01T11:01:23;24.20;;;14.17;;
50483;SDS011;36409;52.168;20.878;2023-03-01T11:04:09;41.57;;;22.93;;
50483;SDS011;36409;52.168;20.878;2023-03-01T11:06:41;26.40;;;14.77;;
50483;SDS011;36409;52.168;20.878;2023-03-01T11:09:14;22.33;;;13.07;;
50483;SDS011;36409;52.168;20.878;2023-03-01T11:11:46;27.57;;;14.93;;
50483;SDS011;36409;52.168;20.878;2023-03-01T11:14:21;30.87;;;17.30;;
50483;SDS011;36409;52.168;20.878;2023-03-01T11:17:02;28.10;;;14.57;;
50483;SDS011;36409;52.168;20.878;2023-03-01T11:19:33;22.40;;;12.40;;
50483;SDS011;36409;52.168;20.878;2023-03-01T11:22:03;21.07;;;11.63;;
50483;SDS011;36409;52.168;20.878;2023-03-01T11:24:41;26.30;;;14.80;;
50483;SDS011;36409;52.168;20.878;2023-03-01T11:27:15;26.03;;;12.90;;
50483;SDS011;36409;52.168;20.878;2023-03-01T11:29:50;23.60;;;12.03;;
50483;SDS011;36409;52.168;20.878;2023-03-01T11:32:28;29.40;;;16.27;;
50483;SDS011;36409;52.168;20.878;2023-03-01T11:35:05;21.77;;;12.30;;
50483;SDS011;36409;52.168;20.878;2023-03-01T11:37:44;24.63;;;12.93;;
50483;SDS011;36409;52.168;20.878;2023-03-01T11:40:26;21.97;;;12.87;;
50483;SDS011;36409;52.168;20.878;2023-03-01T11:43:04;27.65;;;15.58;;
50483;SDS011;36409;52.168;20.878;2023-03-01T11:45:47;23.83;;;12.97;;
50483;SDS011;36409;52.168;20.878;2023-03-01T11:51:19;21.57;;;11.47;;
50483;SDS011;36409;52.168;20.878;2023-03-01T11:56:52;20.97;;;11.37;;
50483;SDS011;36409;52.168;20.878;2023-03-01T11:59:44;24.53;;;11.60;;
50483;SDS011;36409;52.168;20.878;2023-03-01T12:02:42;22.43;;;12.40;;
50483;SDS011;36409;52.168;20.878;2023-03-01T12:05:52;27.47;;;12.53;;
50483;SDS011;36409;52.168;20.878;2023-03-01T12:08:39;22.80;;;11.43;;
50483;SDS011;36409;52.168;20.878;2023-03-01T12:11:18;24.40;;;12.93;;
50483;SDS011;36409;52.168;20.878;2023-03-01T12:14:01;24.37;;;12.00;;
50483;SDS011;36409;52.168;20.878;2023-03-01T12:20:09;26.30;;;14.03;;
50483;SDS011;36409;52.168;20.878;2023-03-01T12:22:52;22.80;;;13.33;;
50483;SDS011;36409;52.168;20.878;2023-03-01T12:25:49;30.17;;;14.57;;
50483;SDS011;36409;52.168;20.878;2023-03-01T12:28:37;32.03;;;13.83;;
50483;SDS011;36409;52.168;20.878;2023-03-01T12:31:26;27.87;;;14.07;;
50483;SDS011;36409;52.168;20.878;2023-03-01T12:34:19;18.63;;;11.30;;
50483;SDS011;36409;52.168;20.878;2023-03-01T12:39:51;21.57;;;11.27;;
50483;SDS011;36409;52.168;20.878;2023-03-01T12:42:46;21.07;;;11.97;;
50483;SDS011;36409;52.168;20.878;2023-03-01T12:45:34;22.48;;;11.28;;
50483;SDS011;36409;52.168;20.878;2023-03-01T12:48:20;17.80;;;9.97;;
50483;SDS011;36409;52.168;20.878;2023-03-01T12:51:02;18.33;;;10.10;;
50483;SDS011;36409;52.168;20.878;2023-03-01T12:53:35;22.63;;;12.33;;
50483;SDS011;36409;52.168;20.878;2023-03-01T12:56:10;20.03;;;10.80;;
50483;SDS011;36409;52.168;20.878;2023-03-01T12:58:46;19.00;;;9.90;;
50483;SDS011;36409;52.168;20.878;2023-03-01T13:01:29;22.03;;;12.17;;
50483;SDS011;36409;52.168;20.878;2023-03-01T13:04:16;23.53;;;11.63;;
50483;SDS011;36409;52.168;20.878;2023-03-01T13:09:46;25.03;;;10.60;;
50483;SDS011;36409;52.168;20.878;2023-03-01T13:12:42;21.97;;;12.00;;
50483;SDS011;36409;52.168;20.878;2023-03-01T13:15:33;22.23;;;12.30;;
50483;SDS011;36409;52.168;20.878;2023-03-01T13:18:26;24.73;;;13.40;;
50483;SDS011;36409;52.168;20.878;2023-03-01T13:20:59;24.83;;;13.27;;
50483;SDS011;36409;52.168;20.878;2023-03-01T13:23:31;25.83;;;14.50;;
50483;SDS011;36409;52.168;20.878;2023-03-01T13:26:04;20.63;;;11.50;;
50483;SDS011;36409;52.168;20.878;2023-03-01T13:28:40;24.50;;;13.50;;
50483;SDS011;36409;52.168;20.878;2023-03-01T13:34:54;24.83;;;12.63;;
50483;SDS011;36409;52.168;20.878;2023-03-01T13:37:35;25.17;;;13.27;;
50483;SDS011;36409;52.168;20.878;2023-03-01T13:46:11;23.73;;;12.80;;
50483;SDS011;36409;52.168;20.878;2023-03-01T13:48:47;24.60;;;13.97;;
50483;SDS011;36409;52.168;20.878;2023-03-01T13:51:21;35.67;;;19.30;;
50483;SDS011;36409;52.168;20.878;2023-03-01T13:53:56;33.63;;;16.67;;
50483;SDS011;36409;52.168;20.878;2023-03-01T13:56:28;34.03;;;17.73;;
50483;SDS011;36409;52.168;20.878;2023-03-01T13:59:05;27.53;;;14.50;;
50483;SDS011;36409;52.168;20.878;2023-03-01T14:01:51;26.03;;;14.07;;
50483;SDS011;36409;52.168;20.878;2023-03-01T14:04:22;29.97;;;15.80;;
50483;SDS011;36409;52.168;20.878;2023-03-01T14:09:53;25.95;;;13.53;;
50483;SDS011;36409;52.168;20.878;2023-03-01T14:12:36;26.53;;;13.53;;
50483;SDS011;36409;52.168;20.878;2023-03-01T14:15:17;24.27;;;13.73;;
50483;SDS011;36409;52.168;20.878;2023-03-01T14:18:00;26.73;;;16.97;;
50483;SDS011;36409;52.168;20.878;2023-03-01T14:20:41;29.67;;;17.87;;
50483;SDS011;36409;52.168;20.878;2023-03-01T14:23:21;34.33;;;16.33;;
50483;SDS011;36409;52.168;20.878;2023-03-01T14:25:59;28.50;;;14.45;;
50483;SDS011;36409;52.168;20.878;2023-03-01T14:28:32;24.80;;;13.32;;
50483;SDS011;36409;52.168;20.878;2023-03-01T14:31:32;28.53;;;14.73;;
50483;SDS011;36409;52.168;20.878;2023-03-01T14:34:23;25.27;;;15.10;;
50483;SDS011;36409;52.168;20.878;2023-03-01T14:39:27;36.23;;;17.50;;
50483;SDS011;36409;52.168;20.878;2023-03-01T14:42:02;31.90;;;18.93;;
50483;SDS011;36409;52.168;20.878;2023-03-01T14:44:45;28.30;;;14.93;;
50483;SDS011;36409;52.168;20.878;2023-03-01T14:47:23;31.33;;;17.17;;
50483;SDS011;36409;52.168;20.878;2023-03-01T14:50:03;33.20;;;18.77;;
50483;SDS011;36409;52.168;20.878;2023-03-01T14:52:47;29.40;;;16.57;;
50483;SDS011;36409;52.168;20.878;2023-03-01T14:55:29;24.10;;;14.23;;
50483;SDS011;36409;52.168;20.878;2023-03-01T14:58:05;31.50;;;17.93;;
50483;SDS011;36409;52.168;20.878;2023-03-01T15:00:46;32.20;;;16.10;;
50483;SDS011;36409;52.168;20.878;2023-03-01T15:03:25;34.30;;;19.63;;
50483;SDS011;36409;52.168;20.878;2023-03-01T15:06:02;34.80;;;19.97;;
50483;SDS011;36409;52.168;20.878;2023-03-01T15:08:37;30.20;;;17.77;;
50483;SDS011;36409;52.168;20.878;2023-03-01T15:11:20;28.63;;;16.53;;
50483;SDS011;36409;52.168;20.878;2023-03-01T15:13:54;28.30;;;14.47;;
50483;SDS011;36409;52.168;20.878;2023-03-01T15:16:31;26.53;;;15.00;;
50483;SDS011;36409;52.168;20.878;2023-03-01T15:19:16;23.07;;;13.87;;
50483;SDS011;36409;52.168;20.878;2023-03-01T15:21:53;29.20;;;14.63;;
50483;SDS011;36409;52.168;20.878;2023-03-01T15:24:28;30.13;;;15.60;;
50483;SDS011;36409;52.168;20.878;2023-03-01T15:27:04;25.20;;;14.00;;